Latest Weather Observations for Pallamana

IDS60801

Issued at 1:31 am CST Friday 31 July 2015 (issued every 30 minutes, with the page automatically refreshed every 10 minutes)

About weather observations | Map of weather stations | Latest weather observations for SA | Other Formats
Station Details ID: 024584 Name: PALLAMANA AERODROME Lat: -35.06 Lon: 139.23 Height: 45.0 m
Data from the previous 72 hours. | See also: Recent months at Pallamana
Date/Time
CST
Temp
°C
App
Temp
°C
Dew
Point
Rel
Hum
%
Delta-T
°C
Wind Press
QNH
hPa
Press
MSL
hPa
Rain
since 9 am
mm
Dir
 
Spd
km/h
Gust
km/h
Spd
kts
Gust
kts
31/01:30am 5.8 2.0 3.9 88 0.8 W 13 15 7 8 1022.4 1022.5 2.4
31/01:00am 6.6 3.0 4.8 88 0.8 W 13 17 7 9 1022.5 1022.6 2.4
31/12:30am 7.0 3.5 5.4 89 0.7 W 13 17 7 9 1022.6 1022.7 2.2
31/12:00am 6.5 2.9 5.1 91 0.6 WSW 13 13 7 7 1022.4 1022.5 2.2
 
Date/Time
CST
Temp
°C
App
Temp
°C
Dew
Point
Rel
Hum
%
Delta-T
°C
Wind Press
QNH
hPa
Press
MSL
hPa
Rain
since 9 am
mm
Dir
 
Spd
km/h
Gust
km/h
Spd
kts
Gust
kts
30/11:30pm 7.5 3.7 5.9 90 0.7 WSW 15 17 8 9 1022.5 1022.6 2.2
30/11:00pm 8.2 5.0 6.9 91 0.6 W 13 15 7 8 1022.6 1022.7 2.2
30/10:30pm 7.7 4.4 6.6 93 0.5 WSW 13 15 7 8 1022.6 1022.7 2.2
30/10:00pm 9.4 6.5 8.2 92 0.6 WSW 13 15 7 8 1022.5 1022.6 2.2
30/09:30pm 10.1 7.4 8.9 92 0.6 WSW 13 15 7 8 1022.3 1022.4 2.2
30/09:00pm 10.7 9.0 9.7 93 0.5 SW 9 15 5 8 1021.7 1021.8 2.2
30/08:52pm 10.8 9.1 9.8 93 0.5 SW 9 13 5 7 1021.7 1021.8 2.2
30/08:48pm 10.8 9.1 9.8 93 0.5 SW 9 13 5 7 1021.7 1021.8 2.2
30/08:34pm 10.9 8.1 9.9 93 0.5 SW 15 19 8 10 1021.6 1021.7 2.2
30/08:30pm 10.9 8.1 9.9 93 0.5 WSW 15 17 8 9 1021.5 1021.6 2.2
30/08:01pm 10.9 8.8 9.9 93 0.5 SW 11 13 6 7 1021.1 1021.2 2.0
30/08:00pm 10.9 8.8 9.9 93 0.5 SW 11 13 6 7 1021.1 1021.2 2.0
30/07:30pm 11.0 7.8 9.8 92 0.6 SSW 17 22 9 12 1020.7 1020.8 1.8
30/07:28pm 11.0 7.3 9.6 91 0.7 SSW 19 28 10 15 1020.7 1020.8 1.8
30/07:26pm 11.0 7.1 9.6 91 0.7 SSW 20 28 11 15 1020.7 1020.8 1.8
30/07:04pm 11.2 6.7 10.2 94 0.5 SSW 24 33 13 18 1020.4 1020.5 1.6
30/07:00pm 11.4 6.9 10.2 92 0.6 SSW 24 30 13 16 1020.4 1020.5 1.4
30/06:30pm 11.7 7.2 10.1 90 0.8 SSW 24 35 13 19 1019.8 1019.9 0.6
30/06:23pm 11.8 8.2 10.0 89 0.9 W 19 35 10 19 1019.6 1019.7 0.4
30/06:22pm 11.8 8.6 10.0 89 0.9 WNW 17 35 9 19 1019.6 1019.7 0.4
30/06:00pm 10.1 7.6 8.0 87 1.0 N 11 15 6 8 1019.0 1019.1 0.0
30/05:30pm 11.1 8.0 8.7 85 1.2 N 15 20 8 11 1018.5 1018.5 0.0
30/05:00pm 12.6 9.1 8.8 77 1.9 NNW 17 24 9 13 1018.5 1018.5 0.0
30/04:30pm 13.3 9.7 8.5 72 2.4 WNW 17 26 9 14 1018.3 1018.3 0.0
30/04:00pm 14.9 10.8 7.9 63 3.5 WNW 19 30 10 16 1017.7 1017.7 0.0
30/03:30pm 14.8 9.1 6.5 57 4.0 NW 26 39 14 21 1017.5 1017.5 0.0
30/03:00pm 15.1 8.6 4.9 50 4.8 WNW 28 41 15 22 1017.4 1017.4 0.0
30/02:30pm 16.0 9.3 3.6 43 5.7 NW 28 37 15 20 1017.1 1017.1 0.0
30/02:00pm 15.7 9.5 1.9 39 6.1 WNW 24 37 13 20 1017.3 1017.3 0.0
30/01:30pm 15.8 8.8 1.8 39 6.2 NW 28 39 15 21 1017.3 1017.3 0.0
30/01:00pm 15.7 8.4 0.3 35 6.6 NW 28 41 15 22 1017.5 1017.5 0.0
30/12:30pm 16.0 8.3 -0.3 33 6.9 NW 30 39 16 21 1017.7 1017.7 0.0
30/12:00pm 16.5 8.6 0.9 34 6.8 NW 32 46 17 25 1018.1 1018.1 0.0
30/11:30am 15.5 6.9 -0.1 34 6.6 NNW 35 54 19 29 1018.3 1018.3 0.0
30/11:00am 15.2 7.2 0.1 35 6.4 NNW 32 46 17 25 1018.6 1018.6 0.0
30/10:30am 14.7 6.1 0.0 36 6.2 NNW 35 46 19 25 1018.4 1018.4 0.0
30/10:06am 14.1 3.8 -1.1 35 6.2 NNW 43 63 23 34 1018.3 1018.3 0.0
30/10:00am 13.9 4.0 -0.7 36 6.0 NNW 41 56 22 30 1018.2 1018.2 0.0
30/09:30am 13.4 3.1 -1.2 36 5.9 NNW 43 54 23 29 1018.2 1018.2 0.0
30/09:00am 13.1 3.1 -1.3 37 5.8 NNW 41 54 22 29 1018.6 1018.6 0.0
30/08:30am 12.6 3.4 -1.4 38 5.6 NNW 37 50 20 27 1018.8 1018.8 0.0
30/08:08am 12.6 3.7 -1.8 36 5.7 NNW 35 54 19 29 1018.9 1018.9 0.0
30/08:00am 12.6 3.7 -1.8 36 5.7 NW 35 48 19 26 1018.8 1018.8 0.0
30/07:36am 12.7 3.0 -2.0 36 5.8 NW 39 57 21 31 1018.9 1018.9 0.0
30/07:30am 12.7 3.0 -2.4 35 5.9 NW 39 56 21 30 1018.7 1018.7 0.0
30/07:00am 12.5 4.2 -1.6 37 5.6 NW 32 50 17 27 1018.0 1018.0 0.0
30/06:59am 12.6 4.3 -1.8 36 5.7 NW 32 50 17 27 1018.0 1018.0 0.0
30/06:30am 12.2 6.5 -1.0 40 5.3 N 19 32 10 17 1018.5 1018.5 0.0
30/06:00am 12.6 4.1 -1.8 36 5.7 N 33 41 18 22 1018.2 1018.2 0.0
30/05:30am 12.3 4.8 -1.6 38 5.5 N 28 35 15 19 1019.1 1019.2 0.0
30/05:00am 12.6 6.6 -1.8 36 5.7 N 20 35 11 19 1019.6 1019.7 0.0
30/04:30am 11.0 6.4 -1.2 42 4.8 NNE 13 20 7 11 1020.0 1020.1 0.0
30/04:00am 11.2 6.2 -1.2 42 4.9 N 15 22 8 12 1020.3 1020.4 0.0
30/03:30am 11.7 6.8 -0.8 42 5.0 NNW 15 24 8 13 1020.6 1020.7 0.0
30/03:00am 7.2 4.4 2.3 71 2.0 N 6 9 3 5 1021.1 1021.2 0.0
30/02:30am 7.1 2.6 2.2 71 2.0 NNE 15 20 8 11 1021.7 1021.8 0.0
30/02:00am 7.0 1.8 2.4 72 1.9 NE 19 24 10 13 1022.0 1022.1 0.0
30/01:30am 7.0 3.0 2.7 74 1.8 NNE 13 24 7 13 1022.4 1022.5 0.0
30/01:00am 6.4 2.8 3.0 79 1.4 N 11 15 6 8 1022.7 1022.8 0.0
30/12:30am 6.5 1.4 2.9 78 1.5 NNE 19 20 10 11 1022.9 1023.0 0.0
30/12:00am 6.6 1.9 3.3 79 1.4 NNE 17 20 9 11 1023.6 1023.7 0.0
 
Date/Time
CST
Temp
°C
App
Temp
°C
Dew
Point
Rel
Hum
%
Delta-T
°C
Wind Press
QNH
hPa
Press
MSL
hPa
Rain
since 9 am
mm
Dir
 
Spd
km/h
Gust
km/h
Spd
kts
Gust
kts
29/11:30pm 5.8 3.1 2.6 80 1.3 N 6 9 3 5 1024.1 1024.2 0.0
29/11:00pm 5.0 1.7 2.3 83 1.1 N 9 11 5 6 1024.3 1024.4 0.0
29/10:30pm 4.9 0.8 2.1 82 1.1 N 13 15 7 8 1024.6 1024.7 0.0
29/10:00pm 5.1 1.0 2.4 83 1.1 N 13 15 7 8 1025.0 1025.1 0.0
29/09:30pm 6.1 2.1 3.0 80 1.3 N 13 19 7 10 1025.1 1025.2 0.0
29/09:00pm 5.0 0.2 2.5 84 1.0 N 17 19 9 10 1025.4 1025.5 0.0
29/08:30pm 6.6 3.0 3.0 78 1.5 NNW 11 15 6 8 1025.7 1025.8 0.0
29/08:00pm 7.3 4.1 3.0 74 1.8 NNW 9 13 5 7 1025.8 1025.9 0.0
29/07:30pm 8.4 4.1 3.5 71 2.1 N 15 17 8 9 1025.8 1025.9 0.0
29/07:00pm 9.1 5.2 3.5 68 2.4 NNE 13 17 7 9 1026.0 1026.1 0.0
29/06:30pm 9.5 5.0 4.0 68 2.4 NNE 17 20 9 11 1025.5 1025.6 0.0
29/06:00pm 9.4 5.2 3.9 68 2.4 N 15 20 8 11 1025.5 1025.6 0.0
29/05:30pm 10.6 5.7 4.3 65 2.8 N 19 22 10 12 1025.4 1025.5 0.0
29/05:00pm 11.6 6.8 4.5 61 3.2 N 19 20 10 11 1025.6 1025.7 0.0
29/04:30pm 11.4 7.4 4.8 64 3.0 NNE 15 17 8 9 1025.8 1025.9 0.0
29/04:00pm 11.8 7.7 4.5 61 3.3 NNE 15 17 8 9 1026.2 1026.3 0.0
29/03:30pm 12.0 7.8 3.9 57 3.6 N 15 20 8 11 1026.4 1026.5 0.0
29/03:00pm 12.5 7.9 3.5 54 4.0 N 17 20 9 11 1026.7 1026.8 0.0
29/02:30pm 12.3 7.0 3.2 54 4.0 N 20 26 11 14 1027.2 1027.3 0.0
29/02:00pm 12.4 8.3 4.2 57 3.7 N 15 20 8 11 1027.5 1027.6 0.0
29/01:30pm 11.8 7.8 5.0 63 3.1 N 15 20 8 11 1027.9 1028.0 0.0
29/01:00pm 11.9 7.6 5.1 63 3.1 NNE 17 20 9 11 1028.4 1028.5 0.0
29/12:30pm 11.4 7.4 4.8 64 3.0 NNE 15 19 8 10 1029.1 1029.2 0.0
29/12:00pm 10.7 7.0 4.7 66 2.7 N 13 17 7 9 1030.1 1030.2 0.0
29/11:30am 10.0 6.0 5.1 71 2.2 N 15 20 8 11 1030.8 1030.9 0.0
29/11:00am 9.3 5.7 4.8 73 2.0 NNE 13 17 7 9 1030.5 1030.6 0.0
29/10:30am 8.2 4.9 4.8 79 1.5 NNE 11 17 6 9 1031.5 1031.6 0.0
29/10:00am 6.7 3.8 4.4 85 1.0 NNE 9 13 5 7 1031.7 1031.8 0.0
29/09:30am 6.2 2.8 4.1 86 0.9 N 11 13 6 7 1032.0 1032.1 0.0
29/09:00am 5.3 2.3 3.9 91 0.6 N 9 13 5 7 1031.6 1031.7 0.2
29/08:30am 3.7 0.8 2.4 91 0.5 N 7 9 4 5 1032.3 1032.4 0.2
29/08:00am 3.5 0.6 2.5 93 0.4 WNW 7 9 4 5 1032.5 1032.6 0.2
29/07:30am 2.1 -0.8 1.3 94 0.3 NNW 6 7 3 4 1031.7 1031.8 0.2
29/07:00am 2.0 -1.5 1.2 94 0.3 N 9 13 5 7 1031.3 1031.4 0.2
29/06:30am 2.4 -0.5 1.6 94 0.3 N 6 7 3 4 1031.4 1031.5 0.2
29/06:00am 2.8 0.0 2.3 96 0.2 NNW 6 7 3 4 1031.7 1031.8 0.2
29/05:30am 2.9 -0.1 1.9 93 0.4 NW 7 9 4 5 1031.7 1031.8 0.2
29/05:00am 3.3 -0.1 2.0 91 0.5 NW 9 13 5 7 1031.9 1032.0 0.2
29/04:30am 3.3 -0.4 2.3 93 0.4 NNW 11 13 6 7 1031.6 1031.7 0.2
29/04:00am 3.9 0.7 3.2 95 0.3 NNW 9 11 5 6 1031.5 1031.6 0.2
29/03:30am 2.2 -1.2 1.7 96 0.2 N 9 11 5 6 1031.6 1031.7 0.2
29/03:00am 4.6 1.2 3.9 95 0.3 NNW 11 13 6 7 1031.7 1031.8 0.2
29/02:30am 3.8 0.6 2.8 93 0.4 N 9 11 5 6 1031.7 1031.8 0.2
29/02:00am 4.3 1.3 4.3 100 0.0 NW 9 11 5 6 1032.7 1032.8 0.2
29/01:30am 2.5 -0.5 2.0 96 0.2 N 7 9 4 5 1032.6 1032.7 0.2
29/01:00am 5.8 3.3 4.6 92 0.5 NW 7 9 4 5 1032.8 1032.9 0.2
29/12:30am 5.3 2.9 4.1 92 0.5 NNE 6 7 3 4 1033.0 1033.1 0.2
29/12:00am 6.6 5.7 5.9 95 0.3 CALM 0 0 0 0 1033.6 1033.7 0.2
 
Date/Time
CST
Temp
°C
App
Temp
°C
Dew
Point
Rel
Hum
%
Delta-T
°C
Wind Press
QNH
hPa
Press
MSL
hPa
Rain
since 9 am
mm
Dir
 
Spd
km/h
Gust
km/h
Spd
kts
Gust
kts
28/11:30pm 7.5 6.7 6.4 93 0.5 CALM 0 0 0 0 1033.9 1034.0 0.2
28/11:00pm 7.8 7.0 6.7 93 0.5 CALM 0 0 0 0 1033.6 1033.7 0.2
28/10:30pm 8.2 7.5 6.9 91 0.6 CALM 0 0 0 0 1034.3 1034.3 0.2
28/10:00pm 9.1 7.7 7.4 89 0.8 W 4 7 2 4 1034.6 1034.6 0.2
28/09:30pm 8.9 8.3 7.4 90 0.7 CALM 0 0 0 0 1034.5 1034.5 0.2
28/09:00pm 9.5 8.5 7.4 87 1.0 W 2 6 1 3 1034.9 1034.9 0.2
28/08:30pm 9.6 9.0 7.5 87 1.0 CALM 0 0 0 0 1035.1 1035.1 0.2
28/08:00pm 9.3 8.3 7.4 88 0.9 S 2 6 1 3 1034.8 1034.8 0.2
28/07:30pm 9.9 8.2 7.6 85 1.1 SSW 6 9 3 5 1035.1 1035.1 0.2
28/07:00pm 10.2 9.7 7.7 84 1.2 CALM 0 0 0 0 1035.0 1035.0 0.2
28/06:30pm 10.3 9.7 7.6 83 1.3 CALM 0 0 0 0 1034.9 1034.9 0.2
28/06:00pm 10.6 9.0 8.1 84 1.2 SSW 6 9 3 5 1034.8 1034.8 0.2
28/05:30pm 11.3 10.0 7.5 77 1.8 S 4 7 2 4 1035.1 1035.1 0.2
28/05:00pm 11.6 9.7 7.6 76 1.9 S 7 7 4 4 1034.8 1034.8 0.2
28/04:30pm 12.3 10.0 7.3 71 2.4 SSW 9 11 5 6 1034.9 1034.9 0.2
28/04:00pm 13.0 11.1 6.7 65 3.0 S 6 7 3 4 1034.7 1034.7 0.2
28/03:30pm 13.1 12.1 5.6 60 3.5 CALM 0 0 0 0 1034.8 1034.8 0.2
28/03:00pm 13.3 11.4 5.0 57 3.8 S 4 7 2 4 1034.8 1034.8 0.2
28/02:30pm 13.5 11.7 5.3 57 3.8 S 4 9 2 5 1034.8 1034.8 0.2
28/02:00pm 13.3 11.0 4.8 56 3.9 ESE 6 7 3 4 1035.2 1035.2 0.2
28/01:30pm 13.2 11.0 5.2 58 3.7 NW 6 11 3 6 1035.5 1035.5 0.2
28/01:00pm 13.2 10.4 5.2 58 3.7 WNW 9 11 5 6 1036.0 1036.0 0.2
28/12:30pm 12.9 10.1 5.3 60 3.5 NNW 9 13 5 7 1036.7 1036.7 0.2
28/12:00pm 14.1 11.2 6.3 59 3.7 N 11 13 6 7 1037.2 1037.2 0.2
28/11:30am 12.6 9.7 4.9 59 3.5 N 9 13 5 7 1037.6 1037.7 0.2
28/11:00am 13.1 10.8 5.6 60 3.5 NNW 7 15 4 8 1037.9 1038.0 0.2
28/10:30am 12.4 9.5 6.4 67 2.8 WNW 11 15 6 8 1037.9 1038.0 0.0
28/10:00am 11.8 9.1 7.4 74 2.1 WNW 11 17 6 9 1037.9 1038.0 0.0
28/09:30am 10.5 8.2 7.6 82 1.4 NW 9 13 5 7 1037.6 1037.7 0.0
28/09:00am 8.5 7.1 7.2 91 0.6 N 4 7 2 4 1037.8 1037.9 0.0
28/08:30am 4.9 2.9 4.2 95 0.3 ENE 4 7 2 4 1037.8 1037.9 0.0
28/08:00am 2.1 0.1 2.1 100 0.0 N 2 6 1 3 1037.8 1037.9 0.0
28/07:30am 2.2 -0.3 1.7 96 0.2 N 4 6 2 3 1037.9 1038.0 0.0
28/07:00am 0.6 -1.4 -0.2 94 0.3 CALM 0 0 0 0 1037.5 1037.6 0.0
28/06:30am 2.0 -1.5 1.2 94 0.3 NNW 9 9 5 5 1037.4 1037.5 0.0
28/06:00am 0.9 -1.3 0.9 100 0.0 NNE 2 7 1 4 1037.3 1037.4 0.0
28/05:30am 1.3 -1.2 1.3 100 0.0 NNW 4 6 2 3 1036.8 1036.8 0.0
28/05:00am 1.2 -2.1 0.4 94 0.3 NNE 7 9 4 5 1036.6 1036.6 0.0
28/04:30am 0.6 -2.5 0.0 96 0.2 SE 6 7 3 4 1036.3 1036.3 0.0
28/04:00am 0.8 -1.9 0.0 94 0.3 NNW 4 6 2 3 1036.2 1036.2 0.0
28/03:30am 0.8 -1.2 -0.3 92 0.4 CALM 0 6 0 3 1036.2 1036.2 0.0
28/03:00am 4.1 0.4 2.6 90 0.6 W 11 11 6 6 1036.3 1036.3 0.0
28/02:30am 6.1 2.0 4.2 88 0.8 WNW 15 17 8 9 1036.5 1036.5 0.0
28/02:00am 6.1 2.0 4.2 88 0.8 WNW 15 17 8 9 1036.4 1036.4 0.0

Other Formats:

Comma delimited format used in spreadsheet applications
http://www.bom.gov.au/fwo/IDS60801/IDS60801.95818.axf

JavaScript Object Notation format (JSON) in row-major order
http://www.bom.gov.au/fwo/IDS60801/IDS60801.95818.json